createdAt,value
2023-11-15T00:01:57.163Z,5.55
2023-11-15T00:04:35.081Z,5.70
2023-11-15T00:07:14.865Z,6.15
2023-11-15T00:09:51.848Z,5.65
2023-11-15T00:12:21.681Z,5.97
2023-11-15T00:14:57.611Z,6.13
2023-11-15T00:17:41.859Z,5.60
2023-11-15T00:20:14.671Z,5.95
2023-11-15T00:22:52.581Z,6.00
2023-11-15T00:25:26.410Z,6.13
2023-11-15T00:27:55.930Z,6.13
2023-11-15T00:30:28.111Z,5.85
2023-11-15T00:33:00.594Z,6.22
2023-11-15T00:35:34.917Z,5.95
2023-11-15T00:38:07.518Z,7.05
2023-11-15T00:40:39.844Z,6.35
2023-11-15T00:45:44.934Z,6.80
2023-11-15T00:48:17.159Z,6.40
2023-11-15T00:50:47.792Z,6.55
2023-11-15T00:53:21.193Z,6.47
2023-11-15T00:56:00.035Z,6.38
2023-11-15T00:58:39.840Z,6.75
2023-11-15T01:01:14.722Z,7.13
2023-11-15T01:03:57.464Z,6.82
2023-11-15T01:09:15.873Z,7.18
2023-11-15T01:11:57.224Z,6.50
2023-11-15T01:14:37.609Z,6.67
2023-11-15T01:17:10.058Z,7.00
2023-11-15T01:19:47.244Z,6.57
2023-11-15T01:22:18.037Z,6.90
2023-11-15T01:24:50.450Z,7.53
2023-11-15T01:27:26.354Z,7.55
2023-11-15T01:30:07.847Z,7.70
2023-11-15T01:32:37.959Z,7.43
2023-11-15T01:35:20.319Z,7.20
2023-11-15T01:37:55.189Z,7.18
2023-11-15T01:40:30.210Z,6.95
2023-11-15T01:43:11.330Z,7.15
2023-11-15T01:45:44.287Z,7.35
2023-11-15T01:48:17.185Z,7.25
2023-11-15T01:51:06.374Z,8.10
2023-11-15T01:53:53.739Z,8.40
2023-11-15T01:56:29.513Z,8.23
2023-11-15T01:59:08.422Z,7.82
2023-11-15T02:01:44.979Z,8.68
2023-11-15T02:04:20.916Z,8.27
2023-11-15T02:07:00.671Z,8.23
2023-11-15T02:09:37.093Z,7.95
2023-11-15T02:12:14.707Z,8.65
2023-11-15T02:14:51.199Z,8.90
2023-11-15T02:17:23.825Z,7.90
2023-11-15T02:19:59.053Z,8.75
2023-11-15T02:22:33.769Z,8.43
2023-11-15T02:25:14.362Z,8.27
2023-11-15T02:27:49.455Z,8.77
2023-11-15T02:30:23.467Z,8.73
2023-11-15T02:32:54.159Z,8.65
2023-11-15T02:35:31.104Z,8.93
2023-11-15T02:38:13.078Z,8.18
2023-11-15T02:40:58.200Z,9.25
2023-11-15T02:43:34.964Z,8.93
2023-11-15T02:46:17.411Z,8.75
2023-11-15T02:48:57.190Z,9.50
2023-11-15T02:51:32.080Z,8.65
2023-11-15T02:54:09.642Z,9.63
2023-11-15T02:59:16.535Z,8.80
2023-11-15T03:01:56.146Z,9.98
2023-11-15T03:04:27.569Z,9.80
2023-11-15T03:06:59.827Z,9.07
2023-11-15T03:09:38.472Z,9.07
2023-11-15T03:12:17.224Z,9.93
2023-11-15T03:14:57.541Z,9.32
2023-11-15T03:17:33.773Z,8.68
2023-11-15T03:20:06.418Z,8.77
2023-11-15T03:22:41.864Z,9.68
2023-11-15T03:25:12.439Z,10.45
2023-11-15T03:27:48.562Z,10.27
2023-11-15T03:30:24.089Z,10.10
2023-11-15T03:33:02.531Z,9.02
2023-11-15T03:35:40.901Z,9.00
2023-11-15T03:38:13.529Z,9.63
2023-11-15T03:40:45.116Z,9.50
2023-11-15T03:43:24.453Z,7.35
2023-11-15T03:45:59.976Z,9.70
2023-11-15T03:48:46.482Z,9.43
2023-11-15T03:51:20.551Z,9.75
2023-11-15T03:53:54.296Z,10.52
2023-11-15T03:56:24.291Z,9.20
2023-11-15T03:59:02.249Z,9.90
2023-11-15T04:01:48.580Z,9.95
2023-11-15T04:04:36.845Z,9.70
2023-11-15T04:07:13.502Z,9.45
2023-11-15T04:09:52.785Z,10.07
2023-11-15T04:12:26.508Z,10.00
2023-11-15T04:15:04.581Z,9.55
2023-11-15T04:17:35.907Z,9.32
2023-11-15T04:20:15.796Z,10.80
2023-11-15T04:22:46.918Z,9.85
2023-11-15T04:25:24.103Z,10.82
2023-11-15T04:30:30.983Z,10.23
2023-11-15T04:33:04.053Z,10.68
2023-11-15T04:35:40.746Z,11.10
2023-11-15T04:38:18.130Z,10.93
2023-11-15T04:40:55.093Z,11.60
2023-11-15T04:46:00.897Z,11.25
2023-11-15T04:48:34.515Z,11.35
2023-11-15T04:51:04.222Z,11.32
2023-11-15T04:53:41.377Z,11.18
2023-11-15T04:56:16.014Z,11.20
2023-11-15T04:58:47.825Z,11.00
2023-11-15T05:01:26.812Z,11.02
2023-11-15T05:03:56.662Z,12.07
2023-11-15T05:09:07.128Z,11.68
2023-11-15T05:11:46.181Z,11.77
2023-11-15T05:14:18.574Z,12.55
2023-11-15T05:16:59.871Z,12.60
2023-11-15T05:19:43.533Z,11.80
2023-11-15T05:22:22.458Z,11.73
2023-11-15T05:24:55.326Z,12.15
2023-11-15T05:27:30.420Z,12.50
2023-11-15T05:32:44.291Z,11.13
2023-11-15T05:35:19.176Z,12.05
2023-11-15T05:37:52.576Z,12.38
2023-11-15T05:40:28.317Z,11.98
2023-11-15T05:43:12.931Z,11.40
2023-11-15T05:46:08.677Z,11.40
2023-11-15T05:48:54.958Z,11.20
2023-11-15T05:51:30.814Z,12.02
2023-11-15T05:56:59.832Z,12.40
2023-11-15T06:02:19.928Z,13.27
2023-11-15T06:07:29.566Z,13.43
2023-11-15T06:10:04.464Z,13.13
2023-11-15T06:15:48.835Z,13.32
2023-11-15T06:18:22.791Z,13.50
2023-11-15T06:20:59.676Z,13.98
2023-11-15T06:23:38.659Z,12.77
2023-11-15T06:26:19.087Z,13.05
2023-11-15T06:28:57.314Z,12.00
2023-11-15T06:31:28.889Z,12.23
2023-11-15T06:34:02.262Z,12.13
2023-11-15T06:36:43.470Z,11.80
2023-11-15T06:39:22.008Z,12.35
2023-11-15T06:44:37.449Z,11.65
2023-11-15T06:47:17.571Z,11.63
2023-11-15T06:49:49.341Z,12.50
2023-11-15T06:52:34.259Z,12.60
2023-11-15T06:55:07.760Z,12.13
2023-11-15T06:57:50.701Z,13.00
2023-11-15T07:00:27.462Z,11.77
2023-11-15T07:03:00.838Z,13.30
2023-11-15T07:05:51.205Z,12.75
2023-11-15T07:08:48.011Z,11.75
2023-11-15T07:11:22.400Z,11.65
2023-11-15T07:14:05.443Z,12.63
2023-11-15T07:19:12.629Z,11.90
2023-11-15T07:21:58.622Z,13.07
2023-11-15T07:24:42.685Z,13.50
2023-11-15T07:27:28.620Z,12.88
2023-11-15T07:30:12.693Z,12.70
2023-11-15T07:32:53.181Z,13.27
2023-11-15T07:35:30.451Z,13.18
2023-11-15T07:38:10.467Z,13.95
2023-11-15T07:40:47.862Z,13.70
2023-11-15T07:43:19.200Z,13.15
2023-11-15T07:45:56.060Z,11.75
2023-11-15T07:48:31.976Z,11.75
2023-11-15T07:51:19.515Z,13.13
2023-11-15T07:54:01.897Z,11.73
2023-11-15T07:56:40.454Z,12.50
2023-11-15T07:59:12.656Z,12.90
2023-11-15T08:01:45.961Z,12.77
2023-11-15T08:04:27.558Z,12.35
2023-11-15T08:07:06.561Z,12.32
2023-11-15T08:09:37.712Z,12.05
2023-11-15T08:12:15.360Z,13.52
2023-11-15T08:14:55.564Z,12.45
2023-11-15T08:17:27.448Z,12.88
2023-11-15T08:20:01.336Z,11.98
2023-11-15T08:22:37.027Z,11.02
2023-11-15T08:25:13.328Z,11.77
2023-11-15T08:27:45.564Z,10.60
2023-11-15T08:30:19.370Z,11.35
2023-11-15T08:33:09.413Z,12.43
2023-11-15T08:35:51.185Z,13.80
2023-11-15T08:38:26.404Z,14.07
2023-11-15T08:40:58.295Z,17.63
2023-11-15T08:44:04.818Z,17.45
2023-11-15T08:46:47.239Z,20.95
2023-11-15T08:49:21.417Z,20.73
2023-11-15T08:51:58.367Z,21.67
2023-11-15T08:57:18.300Z,19.00
2023-11-15T08:59:58.289Z,19.15
2023-11-15T09:02:32.912Z,18.02
2023-11-15T09:05:21.752Z,19.08
2023-11-15T09:08:00.907Z,18.48
2023-11-15T09:10:32.897Z,20.40
2023-11-15T09:13:09.107Z,18.98
2023-11-15T09:15:48.291Z,18.42
2023-11-15T09:18:27.227Z,16.77
2023-11-15T09:26:36.860Z,18.02
2023-11-15T09:29:10.624Z,19.15
2023-11-15T09:31:47.456Z,18.70
2023-11-15T09:34:20.841Z,19.00
2023-11-15T09:37:07.433Z,17.98
2023-11-15T09:39:47.808Z,18.70
2023-11-15T09:42:21.758Z,18.08
2023-11-15T09:44:52.964Z,18.05
2023-11-15T09:47:33.207Z,16.67
2023-11-15T09:50:16.047Z,18.33
2023-11-15T09:52:50.742Z,17.95
2023-11-15T09:55:24.202Z,18.33
2023-11-15T09:57:59.244Z,17.95
2023-11-15T10:00:36.537Z,18.20
2023-11-15T10:03:20.010Z,18.58
2023-11-15T10:06:07.345Z,17.65
2023-11-15T10:08:41.450Z,18.85
2023-11-15T10:11:16.869Z,19.15
2023-11-15T10:13:52.311Z,18.67
2023-11-15T10:16:32.199Z,17.92
2023-11-15T10:19:24.809Z,18.15
2023-11-15T10:22:06.487Z,16.60
2023-11-15T10:24:44.412Z,16.92
2023-11-15T10:27:25.666Z,17.00
2023-11-15T10:30:04.425Z,17.08
2023-11-15T10:32:39.631Z,16.15
2023-11-15T10:35:19.921Z,16.50
2023-11-15T10:40:45.031Z,17.58
2023-11-15T10:43:31.514Z,16.05
2023-11-15T10:46:03.962Z,15.38
2023-11-15T10:48:38.252Z,16.48
2023-11-15T10:51:25.805Z,17.02
2023-11-15T10:54:02.139Z,16.73
2023-11-15T10:56:36.355Z,18.77
2023-11-15T10:59:07.610Z,18.50
2023-11-15T11:01:39.424Z,18.40
2023-11-15T11:04:17.629Z,17.48
2023-11-15T11:09:47.696Z,18.95
2023-11-15T11:12:31.321Z,17.98
2023-11-15T11:15:36.849Z,17.35
2023-11-15T11:18:23.423Z,17.98
2023-11-15T11:21:03.675Z,18.85
2023-11-15T11:24:19.645Z,19.10
2023-11-15T11:26:54.920Z,20.08
2023-11-15T11:29:27.962Z,21.48
2023-11-15T11:32:35.184Z,20.77
2023-11-15T11:35:40.300Z,20.55
2023-11-15T11:38:13.021Z,21.23
2023-11-15T11:40:56.918Z,20.38
2023-11-15T11:43:32.365Z,20.77
2023-11-15T11:46:19.236Z,22.17
2023-11-15T11:48:49.041Z,20.38
2023-11-15T11:51:21.943Z,22.48
2023-11-15T11:53:55.658Z,20.48
2023-11-15T11:56:37.382Z,21.33
2023-11-15T11:59:14.822Z,21.88
2023-11-15T12:01:56.732Z,20.42
2023-11-15T12:04:31.544Z,21.17
2023-11-15T12:07:05.183Z,20.15
2023-11-15T12:09:37.897Z,21.85
2023-11-15T12:12:13.372Z,21.73
2023-11-15T12:14:53.589Z,21.90
2023-11-15T12:17:29.418Z,22.35
2023-11-15T12:20:08.461Z,21.95
2023-11-15T12:22:43.609Z,20.98
2023-11-15T12:25:24.930Z,21.05
2023-11-15T12:28:04.105Z,20.90
2023-11-15T12:30:41.694Z,20.08
2023-11-15T12:33:18.101Z,20.70
2023-11-15T12:35:52.191Z,22.60
2023-11-15T12:38:25.368Z,23.80
2023-11-15T12:47:55.393Z,21.65
2023-11-15T12:50:31.875Z,22.10
2023-11-15T12:53:15.820Z,23.73
2023-11-15T12:56:00.761Z,25.17
2023-11-15T12:58:50.061Z,24.10
2023-11-15T13:01:26.163Z,25.17
2023-11-15T13:04:02.042Z,24.90
2023-11-15T13:06:48.176Z,23.00
2023-11-15T13:12:03.114Z,23.20
2023-11-15T13:17:15.083Z,23.17
2023-11-15T13:19:55.095Z,24.08
2023-11-15T13:22:31.823Z,24.63
2023-11-15T13:25:11.355Z,23.25
2023-11-15T13:27:43.312Z,23.67
2023-11-15T13:30:17.605Z,25.42
2023-11-15T13:32:50.785Z,25.58
2023-11-15T13:35:28.404Z,27.73
2023-11-15T13:38:01.251Z,29.13
2023-11-15T13:40:35.003Z,30.70
2023-11-15T13:43:13.347Z,31.45
2023-11-15T13:45:46.933Z,29.17
2023-11-15T13:48:26.574Z,29.10
2023-11-15T13:51:06.775Z,27.77
2023-11-15T13:53:40.583Z,29.15
2023-11-15T13:56:13.180Z,27.98
2023-11-15T14:01:18.374Z,26.63
2023-11-15T14:03:56.522Z,28.25
2023-11-15T14:06:33.588Z,26.45
2023-11-15T14:09:10.080Z,27.33
2023-11-15T14:11:45.531Z,27.55
2023-11-15T14:14:16.780Z,25.63
2023-11-15T14:16:50.009Z,26.70
2023-11-15T14:19:25.296Z,28.05
2023-11-15T14:21:59.529Z,26.63
2023-11-15T14:24:31.649Z,28.90
2023-11-15T14:29:43.125Z,27.50
2023-11-15T14:32:19.563Z,29.20
2023-11-15T14:34:57.029Z,28.25
2023-11-15T14:37:35.088Z,26.58
2023-11-15T14:40:12.731Z,27.90
2023-11-15T14:42:49.173Z,28.38
2023-11-15T14:45:28.340Z,27.17
2023-11-15T14:48:00.290Z,26.42
2023-11-15T14:50:39.670Z,25.92
2023-11-15T14:53:31.593Z,27.48
2023-11-15T14:56:12.741Z,27.33
2023-11-15T14:58:53.563Z,26.52
2023-11-15T15:01:27.623Z,27.50
2023-11-15T15:04:00.005Z,26.90
2023-11-15T15:06:30.180Z,27.08
2023-11-15T15:09:06.168Z,26.42
2023-11-15T15:11:39.662Z,26.90
2023-11-15T15:14:12.756Z,26.25
2023-11-15T15:19:24.171Z,26.73
2023-11-15T15:21:56.343Z,27.73
2023-11-15T15:24:33.456Z,27.90
2023-11-15T15:27:09.161Z,27.02
2023-11-15T15:29:50.678Z,27.25
2023-11-15T15:32:25.928Z,27.27
2023-11-15T15:34:59.219Z,29.25
2023-11-15T15:37:39.948Z,29.73
2023-11-15T15:40:23.512Z,27.38
2023-11-15T15:43:07.624Z,27.80
2023-11-15T15:45:45.009Z,27.52
2023-11-15T15:48:32.954Z,28.13
2023-11-15T15:51:08.955Z,26.95
2023-11-15T15:53:47.492Z,26.95
2023-11-15T15:56:23.834Z,27.10
2023-11-15T15:59:06.619Z,27.27
2023-11-15T16:01:40.681Z,26.23
2023-11-15T16:04:22.947Z,27.63
2023-11-15T16:07:03.201Z,26.48
2023-11-15T16:09:45.508Z,28.75
2023-11-15T16:12:25.369Z,28.55
2023-11-15T16:14:59.053Z,30.15
2023-11-15T16:20:22.888Z,30.67
2023-11-15T16:22:57.895Z,31.67
2023-11-15T16:25:47.140Z,32.40
2023-11-15T16:28:22.229Z,29.95
2023-11-15T16:31:00.476Z,29.42
2023-11-15T16:33:35.373Z,31.95
2023-11-15T16:36:14.009Z,29.35
2023-11-15T16:38:54.306Z,29.08
2023-11-15T16:41:29.237Z,29.65
2023-11-15T16:44:12.728Z,28.25
2023-11-15T16:50:00.762Z,29.85
2023-11-15T16:52:42.606Z,29.17
2023-11-15T16:55:20.930Z,29.45
2023-11-15T17:00:44.636Z,28.52
2023-11-15T17:03:21.907Z,27.15
2023-11-15T17:05:55.428Z,28.55
2023-11-15T17:08:29.961Z,29.10
2023-11-15T17:11:03.911Z,28.90
2023-11-15T17:13:37.467Z,25.85
2023-11-15T17:16:13.503Z,28.15
2023-11-15T17:18:49.278Z,27.90
2023-11-15T17:21:29.440Z,27.33
2023-11-15T17:24:06.975Z,27.98
2023-11-15T17:26:39.153Z,27.35
2023-11-15T17:29:16.022Z,26.98
2023-11-15T17:31:51.795Z,26.83
2023-11-15T17:34:35.638Z,25.60
2023-11-15T17:37:12.922Z,28.30
2023-11-15T17:39:46.415Z,26.52
2023-11-15T17:42:18.378Z,26.95
2023-11-15T17:45:00.715Z,26.63
2023-11-15T17:47:40.665Z,25.10
2023-11-15T17:50:14.549Z,27.15
2023-11-15T17:52:45.170Z,26.20
2023-11-15T17:55:19.589Z,26.23
2023-11-15T18:00:37.975Z,24.98
2023-11-15T18:03:12.048Z,25.60
2023-11-15T18:08:36.239Z,25.52
2023-11-15T18:11:25.532Z,25.83
2023-11-15T18:13:58.197Z,27.35
2023-11-15T18:16:37.704Z,28.90
2023-11-15T18:19:23.309Z,26.98
2023-11-15T18:22:01.264Z,27.58
2023-11-15T18:24:33.297Z,27.40
2023-11-15T18:27:17.063Z,28.45
2023-11-15T18:29:54.740Z,27.58
2023-11-15T18:32:27.041Z,28.70
2023-11-15T18:35:02.731Z,28.58
2023-11-15T18:37:36.828Z,27.88
2023-11-15T18:40:22.104Z,28.00
2023-11-15T18:42:53.237Z,26.50
2023-11-15T18:45:26.566Z,28.08
2023-11-15T18:47:59.136Z,26.50
2023-11-15T18:50:35.406Z,27.08
2023-11-15T18:53:35.114Z,26.38
2023-11-15T18:56:17.808Z,26.70
2023-11-15T18:58:56.292Z,25.92
2023-11-15T19:01:28.047Z,26.08
2023-11-15T19:06:39.191Z,24.55
2023-11-15T19:09:18.319Z,22.67
2023-11-15T19:11:53.027Z,24.60
2023-11-15T19:14:25.347Z,24.20
2023-11-15T19:16:57.698Z,24.80
2023-11-15T19:19:31.004Z,25.50
2023-11-15T19:22:05.858Z,26.45
2023-11-15T19:24:45.954Z,28.13
2023-11-15T19:27:17.090Z,26.77
2023-11-15T19:29:55.389Z,26.45
2023-11-15T19:32:33.780Z,25.60
2023-11-15T19:35:11.022Z,25.38
2023-11-15T19:37:44.116Z,26.25
2023-11-15T19:40:16.723Z,25.70
2023-11-15T19:42:55.425Z,25.17
2023-11-15T19:45:32.554Z,25.33
2023-11-15T19:48:02.540Z,25.33
2023-11-15T19:50:40.343Z,25.52
2023-11-15T19:53:20.475Z,24.42
2023-11-15T19:55:58.254Z,26.35
2023-11-15T19:58:29.567Z,27.63
2023-11-15T20:01:08.581Z,26.13
2023-11-15T20:03:44.945Z,25.67
2023-11-15T20:06:20.330Z,26.45
2023-11-15T20:08:54.773Z,26.77
2023-11-15T20:11:27.026Z,29.05
2023-11-15T20:13:57.651Z,28.63
2023-11-15T20:16:29.659Z,28.85
2023-11-15T20:21:31.410Z,27.88
2023-11-15T20:24:06.717Z,27.45
2023-11-15T20:26:39.293Z,27.30
2023-11-15T20:29:11.073Z,28.45
2023-11-15T20:34:30.253Z,24.45
2023-11-15T20:37:03.282Z,24.45
2023-11-15T20:39:40.335Z,26.38
2023-11-15T20:42:15.753Z,25.55
2023-11-15T20:44:50.098Z,25.67
2023-11-15T20:47:30.898Z,26.38
2023-11-15T20:50:05.608Z,25.20
2023-11-15T20:52:38.350Z,25.35
2023-11-15T20:55:16.279Z,24.13
2023-11-15T20:57:47.601Z,24.50
2023-11-15T21:00:26.432Z,24.98
2023-11-15T21:03:00.756Z,23.63
2023-11-15T21:05:37.966Z,23.73
2023-11-15T21:08:17.479Z,23.45
2023-11-15T21:10:50.437Z,21.73
2023-11-15T21:16:06.965Z,21.70
2023-11-15T21:18:46.895Z,23.13
2023-11-15T21:21:22.009Z,23.30
2023-11-15T21:23:55.379Z,21.08
2023-11-15T21:26:32.723Z,20.10
2023-11-15T21:29:13.893Z,20.90
2023-11-15T21:31:52.247Z,21.17
2023-11-15T21:34:39.465Z,24.23
2023-11-15T21:37:24.026Z,23.73
2023-11-15T21:39:59.225Z,25.25
2023-11-15T21:42:43.001Z,25.55
2023-11-15T21:45:24.854Z,25.13
2023-11-15T21:48:05.613Z,23.88
2023-11-15T21:51:04.387Z,23.95
2023-11-15T21:54:01.524Z,24.83
2023-11-15T21:56:37.061Z,26.67
2023-11-15T21:59:14.802Z,25.65
2023-11-15T22:01:50.793Z,25.95
2023-11-15T22:04:42.393Z,25.23
2023-11-15T22:07:20.225Z,26.48
2023-11-15T22:09:49.827Z,25.67
2023-11-15T22:12:21.827Z,25.92
2023-11-15T22:15:08.748Z,25.92
2023-11-15T22:17:50.629Z,25.63
2023-11-15T22:20:28.796Z,24.27
2023-11-15T22:23:08.081Z,25.17
2023-11-15T22:25:48.542Z,24.95
2023-11-15T22:28:25.224Z,24.77
2023-11-15T22:31:00.650Z,25.85
2023-11-15T22:33:36.704Z,24.45
2023-11-15T22:38:56.247Z,25.10
2023-11-15T22:41:31.757Z,27.05
2023-11-15T22:44:13.180Z,25.55
2023-11-15T22:46:52.723Z,26.02
2023-11-15T22:49:38.439Z,26.00
2023-11-15T22:52:14.792Z,25.33
2023-11-15T22:54:46.845Z,26.42
2023-11-15T22:57:18.311Z,25.48
2023-11-15T23:02:30.098Z,27.05
2023-11-15T23:05:11.878Z,26.63
2023-11-15T23:07:57.660Z,26.80
2023-11-15T23:10:41.822Z,28.40
2023-11-15T23:13:16.592Z,28.95
2023-11-15T23:15:52.301Z,28.98
2023-11-15T23:18:26.658Z,29.25
2023-11-15T23:20:58.027Z,29.33
2023-11-15T23:23:33.180Z,30.90
2023-11-15T23:26:10.690Z,31.10
2023-11-15T23:28:50.556Z,34.05
2023-11-15T23:31:35.748Z,37.42
2023-11-15T23:34:19.150Z,37.80
2023-11-15T23:37:08.588Z,39.15
2023-11-15T23:39:49.908Z,37.63
2023-11-15T23:42:26.307Z,37.05
2023-11-15T23:45:01.248Z,34.75
2023-11-15T23:47:40.982Z,37.70
2023-11-15T23:50:23.902Z,36.47
2023-11-15T23:52:57.456Z,37.72
2023-11-15T23:55:29.224Z,35.95
2023-11-15T23:58:04.283Z,36.85
